Time;durP1;ratioP1;P1;durP2;ratioP2;P2;SDS_P1;SDS_P2;PMS_P1;PMS_P2;Temp;Humidity;BMP_temperature;BMP_pressure;BME280_temperature;BME280_humidity;BME280_pressure;Samples;Min_cycle;Max_cycle;Signal;HPM_P1;HPM_P2
2021/12/20 00:00:50;;;;;;;;;;;0.00;99.90;;;;;;5092226;28;20359;-48
2021/12/20 00:03:17;;;;;;;;;;;0.00;99.90;;;;;;5089725;28;19931;-48
2021/12/20 00:05:44;;;;;;;;;;;0.00;99.90;;;;;;5091346;28;20297;-46
2021/12/20 00:08:10;;;;;;;;;;;-0.10;99.90;;;;;;5088449;28;19925;-46
2021/12/20 00:10:37;;;;;;;;;;;-0.10;99.90;;;;;;5090379;28;20271;-47
2021/12/20 00:13:04;;;;;;;;;;;-0.10;99.90;;;;;;5088499;28;19924;-47
2021/12/20 00:15:32;;;;;;;;;;;-0.10;99.90;;;;;;5091819;28;19985;-47
2021/12/20 00:17:59;;;;;;;;;;;-0.10;99.90;;;;;;5089468;28;19978;-49
2021/12/20 00:20:26;;;;;;;;;;;-0.20;99.90;;;;;;5089800;28;19924;-46
2021/12/20 00:22:52;;;;;;;;;;;-0.20;99.90;;;;;;5090135;28;19924;-46
2021/12/20 00:25:20;;;;;;;;;;;-0.20;99.90;;;;;;5090898;28;19924;-48
2021/12/20 00:27:46;;;;;;;;;;;-0.10;99.90;;;;;;5089912;28;19924;-47
2021/12/20 00:30:13;;;;;;;;;;;-0.20;99.90;;;;;;5090603;28;20400;-47
2021/12/20 00:32:41;;;;;;;;;;;-0.30;99.90;;;;;;5089505;28;20511;-47
2021/12/20 00:35:09;;;;;;;;;;;-0.40;99.90;;;;;;5088460;28;20427;-48
2021/12/20 00:40:22;;;;;;;;;;;-0.50;99.90;;;;;;5089106;28;20005;-47
2021/12/20 00:42:50;;;;;;;;;;;-0.40;99.90;;;;;;5089591;28;19944;-46
2021/12/20 00:45:17;;;;;;;;;;;-0.40;99.90;;;;;;5090007;28;19924;-47
2021/12/20 00:47:46;;;;;;;;;;;-0.40;99.90;;;;;;5090658;28;19924;-48
2021/12/20 00:50:13;;;;;;;;;;;-0.40;99.90;;;;;;5090312;28;19924;-47
2021/12/20 00:52:41;;;;;;;;;;;-0.30;99.90;;;;;;5090044;28;19931;-47
2021/12/20 00:55:08;;;;;;;;;;;-0.30;99.90;;;;;;5090415;28;19973;-47
2021/12/20 00:57:35;;;;;;;;;;;-0.30;99.90;;;;;;5089576;28;19924;-46
2021/12/20 01:00:02;;;;;;;;;;;-0.30;99.90;;;;;;5088528;28;19928;-48
2021/12/20 01:02:29;;;;;;;;;;;-0.30;99.90;;;;;;5088566;28;19924;-49
2021/12/20 01:04:57;;;;;;;;;;;-0.30;99.90;;;;;;5090293;28;20377;-48
2021/12/20 01:07:23;;;;;;;;;;;-0.30;99.90;;;;;;5086309;28;19962;-50
2021/12/20 01:09:51;;;;;;;;;;;-0.20;99.90;;;;;;5090396;28;20416;-48
2021/12/20 01:12:20;;;;;;;;;;;-0.20;99.90;;;;;;5088698;28;20011;-49
2021/12/20 01:14:47;;;;;;;;;;;-0.20;99.90;;;;;;5089398;28;19931;-48
2021/12/20 01:17:14;;;;;;;;;;;-0.10;99.90;;;;;;5090302;28;19935;-48
2021/12/20 01:19:40;;;;;;;;;;;0.00;99.90;;;;;;5090537;28;19928;-49
2021/12/20 01:22:09;;;;;;;;;;;0.00;99.90;;;;;;5094442;28;19928;-49
2021/12/20 01:24:35;;;;;;;;;;;0.00;99.90;;;;;;5093442;28;19924;-47
2021/12/20 01:27:02;;;;;;;;;;;0.00;99.90;;;;;;5094244;28;20001;-47
2021/12/20 01:29:29;;;;;;;;;;;0.00;99.90;;;;;;5093317;28;20286;-47
2021/12/20 01:31:56;;;;;;;;;;;0.20;99.90;;;;;;5088145;28;19956;-45
2021/12/20 01:34:23;;;;;;;;;;;0.20;99.90;;;;;;5092645;28;20393;-46
2021/12/20 01:36:50;;;;;;;;;;;0.20;99.90;;;;;;5093816;28;20451;-46
2021/12/20 01:39:18;;;;;;;;;;;0.20;99.90;;;;;;5093025;28;19928;-47
2021/12/20 01:41:45;;;;;;;;;;;0.10;99.90;;;;;;5093553;28;19924;-47
2021/12/20 01:44:12;;;;;;;;;;;0.00;99.90;;;;;;5089838;28;19928;-47
2021/12/20 01:46:39;;;;;;;;;;;0.00;99.90;;;;;;5092951;28;20385;-46
2021/12/20 01:49:10;;;;;;;;;;;0.00;99.90;;;;;;5094121;28;19928;-46
2021/12/20 01:51:49;;;;;;;;;;;0.10;99.90;;;;;;5093039;28;20045;-46
2021/12/20 01:54:16;;;;;;;;;;;-0.10;99.90;;;;;;5087802;28;19924;-47
2021/12/20 01:56:45;;;;;;;;;;;-0.10;99.90;;;;;;5093338;28;20327;-47
2021/12/20 01:59:12;;;;;;;;;;;0.00;99.90;;;;;;5093950;28;19924;-46
2021/12/20 02:01:40;;;;;;;;;;;0.10;99.90;;;;;;5093531;28;20555;-47
2021/12/20 02:04:09;;;;;;;;;;;0.20;99.90;;;;;;5091837;28;19924;-47
2021/12/20 02:06:39;;;;;;;;;;;0.20;99.90;;;;;;5093989;28;19950;-47
2021/12/20 02:09:08;;;;;;;;;;;0.20;99.90;;;;;;5091835;28;19924;-48
2021/12/20 02:11:36;;;;;;;;;;;0.20;99.90;;;;;;5092532;28;20352;-48
2021/12/20 02:14:04;;;;;;;;;;;0.30;99.90;;;;;;5093187;28;19924;-47
2021/12/20 02:16:31;;;;;;;;;;;0.30;99.90;;;;;;5092644;28;19947;-48
2021/12/20 02:19:01;;;;;;;;;;;0.20;99.90;;;;;;5092208;28;19963;-47
2021/12/20 02:21:29;;;;;;;;;;;0.20;99.90;;;;;;5092939;28;19939;-46
2021/12/20 02:23:56;;;;;;;;;;;0.20;99.90;;;;;;5086725;28;19928;-46
2021/12/20 02:26:23;;;;;;;;;;;0.30;99.90;;;;;;5092497;28;19924;-48
2021/12/20 02:28:52;;;;;;;;;;;0.50;99.90;;;;;;5092089;28;19938;-46
2021/12/20 02:37:18;;;;;;;;;;;0.40;99.90;;;;;;5092095;28;19927;-46
2021/12/20 02:39:46;;;;;;;;;;;0.40;99.90;;;;;;5092671;28;19924;-46
2021/12/20 02:42:17;;;;;;;;;;;0.40;99.90;;;;;;5092817;28;20382;-46
2021/12/20 02:44:51;;;;;;;;;;;0.30;99.90;;;;;;5093149;28;19931;-46
2021/12/20 02:47:28;;;;;;;;;;;0.20;99.90;;;;;;5090363;28;19997;-46
2021/12/20 02:49:56;;;;;;;;;;;0.20;99.90;;;;;;5084947;28;20463;-46
2021/12/20 02:52:24;;;;;;;;;;;0.40;99.90;;;;;;5093391;28;19928;-46
2021/12/20 02:54:52;;;;;;;;;;;0.50;99.90;;;;;;5093323;28;20278;-46
2021/12/20 02:57:19;;;;;;;;;;;0.60;99.90;;;;;;5073738;28;19928;-46
2021/12/20 02:59:46;;;;;;;;;;;0.50;99.90;;;;;;5091878;28;19924;-47
2021/12/20 03:02:13;;;;;;;;;;;0.40;99.90;;;;;;5093649;28;19969;-47
2021/12/20 03:04:40;;;;;;;;;;;0.50;99.90;;;;;;5093385;28;19988;-46
2021/12/20 03:07:08;;;;;;;;;;;0.50;99.90;;;;;;5093145;28;20405;-47
2021/12/20 03:09:38;;;;;;;;;;;0.50;99.90;;;;;;5093249;28;19924;-47
2021/12/20 03:12:06;;;;;;;;;;;0.40;99.90;;;;;;5093260;28;19989;-47
2021/12/20 03:14:36;;;;;;;;;;;0.30;99.90;;;;;;5091228;28;20290;-47
2021/12/20 03:17:04;;;;;;;;;;;0.20;99.90;;;;;;5076912;28;19931;-47
2021/12/20 03:19:31;;;;;;;;;;;0.40;99.90;;;;;;5093526;28;19924;-47
2021/12/20 03:21:57;;;;;;;;;;;0.40;99.90;;;;;;5092721;28;19924;-47
2021/12/20 03:24:24;;;;;;;;;;;0.40;99.90;;;;;;5093166;28;19924;-48
2021/12/20 03:26:53;;;;;;;;;;;0.40;99.90;;;;;;5093257;28;19986;-47
2021/12/20 03:29:19;;;;;;;;;;;0.40;99.90;;;;;;5092730;28;19973;-47
2021/12/20 03:31:46;;;;;;;;;;;0.50;99.90;;;;;;5092709;28;19992;-47
2021/12/20 03:34:13;;;;;;;;;;;0.50;99.90;;;;;;5092834;28;19993;-48
2021/12/20 03:36:40;;;;;;;;;;;0.50;99.90;;;;;;5092978;28;20296;-47
2021/12/20 03:39:07;;;;;;;;;;;0.60;99.90;;;;;;5093082;28;20443;-47
2021/12/20 03:41:34;;;;;;;;;;;0.60;99.90;;;;;;5092806;28;19924;-46
2021/12/20 03:44:02;;;;;;;;;;;0.60;99.90;;;;;;5091738;28;19925;-47
2021/12/20 03:46:29;;;;;;;;;;;0.40;99.90;;;;;;5092386;28;19931;-47
2021/12/20 03:48:55;;;;;;;;;;;0.40;99.90;;;;;;5092924;28;19977;-48
2021/12/20 03:51:22;;;;;;;;;;;0.50;99.90;;;;;;5092522;28;19924;-48
2021/12/20 03:53:49;;;;;;;;;;;0.50;99.90;;;;;;5093048;28;20360;-47
2021/12/20 03:56:16;;;;;;;;;;;0.50;99.90;;;;;;5113134;22;20359;-49
2021/12/20 03:58:43;;;;;;;;;;;0.40;99.90;;;;;;5089900;28;19954;-48
2021/12/20 04:01:12;;;;;;;;;;;0.30;99.90;;;;;;5090571;28;20300;-50
2021/12/20 04:03:39;;;;;;;;;;;0.30;99.90;;;;;;5090187;28;19985;-49
2021/12/20 04:06:06;;;;;;;;;;;0.20;99.90;;;;;;5090415;28;19931;-50
2021/12/20 04:08:33;;;;;;;;;;;0.20;99.90;;;;;;5094020;28;19940;-49
2021/12/20 04:11:02;;;;;;;;;;;0.10;99.90;;;;;;5090337;28;19924;-50
2021/12/20 04:13:29;;;;;;;;;;;0.10;99.90;;;;;;5089584;28;19928;-49
2021/12/20 04:15:56;;;;;;;;;;;0.00;99.90;;;;;;5090263;28;19924;-50
2021/12/20 04:18:24;;;;;;;;;;;0.20;99.90;;;;;;5089733;28;19924;-50
2021/12/20 04:20:51;;;;;;;;;;;0.30;99.90;;;;;;5090227;28;19981;-49
2021/12/20 04:23:18;;;;;;;;;;;0.40;99.90;;;;;;5089490;28;19924;-50
2021/12/20 04:25:45;;;;;;;;;;;0.40;99.90;;;;;;5089879;28;19935;-49
2021/12/20 04:28:12;;;;;;;;;;;0.40;99.90;;;;;;5089156;28;20377;-50
2021/12/20 04:30:39;;;;;;;;;;;0.40;99.90;;;;;;5090841;28;20287;-48
2021/12/20 04:33:06;;;;;;;;;;;0.50;99.90;;;;;;5089017;28;19977;-49
2021/12/20 04:35:34;;;;;;;;;;;0.40;99.90;;;;;;5089606;28;19924;-49
2021/12/20 04:38:02;;;;;;;;;;;0.30;99.90;;;;;;5089737;28;19932;-49
2021/12/20 04:40:29;;;;;;;;;;;0.40;99.90;;;;;;5094205;28;19931;-49
2021/12/20 04:42:59;;;;;;;;;;;0.50;99.90;;;;;;5088807;28;20251;-50
2021/12/20 04:45:26;;;;;;;;;;;0.30;99.90;;;;;;5089405;28;19969;-49
2021/12/20 04:47:53;;;;;;;;;;;0.40;99.90;;;;;;5089772;28;19993;-49
2021/12/20 04:50:21;;;;;;;;;;;0.40;99.90;;;;;;5089500;28;19924;-50
2021/12/20 04:52:49;;;;;;;;;;;0.40;99.90;;;;;;5089347;28;19934;-49
2021/12/20 04:55:17;;;;;;;;;;;0.50;99.90;;;;;;5088605;28;19971;-49
2021/12/20 04:57:44;;;;;;;;;;;0.40;99.90;;;;;;5088898;28;19977;-49
2021/12/20 05:00:13;;;;;;;;;;;0.50;99.90;;;;;;5089403;28;20627;-50
2021/12/20 05:02:40;;;;;;;;;;;0.50;99.90;;;;;;5088907;28;19978;-49
2021/12/20 05:05:10;;;;;;;;;;;0.50;99.90;;;;;;5088864;28;20672;-49
2021/12/20 05:07:38;;;;;;;;;;;0.60;99.90;;;;;;5089380;28;19979;-49
2021/12/20 05:10:09;;;;;;;;;;;0.50;99.90;;;;;;5088692;28;20354;-49
2021/12/20 05:12:35;;;;;;;;;;;0.50;99.90;;;;;;5092002;28;19973;-49
2021/12/20 05:15:02;;;;;;;;;;;0.40;99.90;;;;;;5098708;28;19928;-48
2021/12/20 05:17:29;;;;;;;;;;;0.40;99.90;;;;;;5087285;28;19985;-49
2021/12/20 05:19:56;;;;;;;;;;;0.40;99.90;;;;;;5089250;28;20458;-50
2021/12/20 05:22:23;;;;;;;;;;;0.30;99.90;;;;;;5089359;28;19953;-49
2021/12/20 05:24:50;;;;;;;;;;;0.50;99.90;;;;;;5089138;28;19970;-49
2021/12/20 05:27:18;;;;;;;;;;;0.40;99.90;;;;;;5089428;28;19988;-49
2021/12/20 05:29:47;;;;;;;;;;;0.60;99.90;;;;;;5088782;28;19993;-49
2021/12/20 05:32:14;;;;;;;;;;;0.60;99.90;;;;;;5089192;28;19974;-49
2021/12/20 05:34:40;;;;;;;;;;;0.60;99.90;;;;;;5089082;28;19974;-49
2021/12/20 05:37:07;;;;;;;;;;;0.40;99.90;;;;;;5089223;28;20057;-49
2021/12/20 05:39:34;;;;;;;;;;;0.40;99.90;;;;;;5089306;28;20343;-50
2021/12/20 05:42:01;;;;;;;;;;;0.60;99.90;;;;;;5089102;28;20376;-49
2021/12/20 05:44:29;;;;;;;;;;;0.70;99.90;;;;;;5088818;28;19970;-49
2021/12/20 05:46:55;;;;;;;;;;;0.60;99.90;;;;;;5088700;28;20385;-48
2021/12/20 05:49:22;;;;;;;;;;;0.50;99.90;;;;;;5088816;28;19949;-49
2021/12/20 05:51:49;;;;;;;;;;;0.60;99.90;;;;;;5088335;28;19924;-48
2021/12/20 05:54:16;;;;;;;;;;;0.60;99.90;;;;;;5089196;28;20242;-49
2021/12/20 05:56:42;;;;;;;;;;;0.60;99.90;;;;;;5088821;28;20368;-50
2021/12/20 05:59:09;;;;;;;;;;;0.60;99.90;;;;;;5087129;28;19924;-49
2021/12/20 06:01:37;;;;;;;;;;;0.60;99.90;;;;;;5088852;28;19924;-49
2021/12/20 06:04:04;;;;;;;;;;;0.60;99.90;;;;;;5089018;28;19957;-48
2021/12/20 06:06:32;;;;;;;;;;;0.60;99.90;;;;;;5089334;28;19957;-51
2021/12/20 06:08:59;;;;;;;;;;;0.60;99.90;;;;;;5093081;28;19924;-51
2021/12/20 06:11:26;;;;;;;;;;;0.50;99.90;;;;;;5092612;28;20372;-49
2021/12/20 06:13:52;;;;;;;;;;;0.40;99.90;;;;;;5092114;28;19981;-49
2021/12/20 06:16:19;;;;;;;;;;;0.40;99.90;;;;;;5092511;28;20316;-49
2021/12/20 06:18:47;;;;;;;;;;;0.40;99.90;;;;;;5092018;28;20292;-49
2021/12/20 06:21:14;;;;;;;;;;;0.40;99.90;;;;;;5091922;28;20048;-49
2021/12/20 06:23:41;;;;;;;;;;;0.40;99.90;;;;;;5092057;28;20021;-49
2021/12/20 06:26:08;;;;;;;;;;;0.40;99.90;;;;;;5092242;28;19993;-48
2021/12/20 06:28:34;;;;;;;;;;;0.40;99.90;;;;;;5106469;28;19947;-49
2021/12/20 06:31:01;;;;;;;;;;;0.40;99.90;;;;;;5112454;28;19924;-49
2021/12/20 06:33:28;;;;;;;;;;;0.40;99.90;;;;;;5097526;28;19936;-49
2021/12/20 06:35:59;;;;;;;;;;;0.40;99.90;;;;;;5092072;28;20278;-49
2021/12/20 06:38:26;;;;;;;;;;;0.30;99.90;;;;;;5092136;28;20016;-48
2021/12/20 06:40:56;;;;;;;;;;;0.20;99.90;;;;;;5107394;28;19960;-49
2021/12/20 06:43:24;;;;;;;;;;;0.20;99.90;;;;;;5112380;28;19924;-48
2021/12/20 06:45:50;;;;;;;;;;;0.10;99.90;;;;;;5112249;28;19923;-49
2021/12/20 06:48:17;;;;;;;;;;;0.00;99.90;;;;;;5108529;28;19936;-49
2021/12/20 06:50:44;;;;;;;;;;;-0.10;99.90;;;;;;5091822;28;20306;-48
2021/12/20 06:53:12;;;;;;;;;;;-0.10;99.90;;;;;;5091659;28;19992;-49
2021/12/20 06:55:39;;;;;;;;;;;-0.20;99.90;;;;;;5091584;28;20352;-49
2021/12/20 06:58:06;;;;;;;;;;;-0.30;99.90;;;;;;5091766;28;20443;-49
2021/12/20 07:00:33;;;;;;;;;;;-0.20;99.90;;;;;;5091741;28;19924;-49
2021/12/20 07:03:00;;;;;;;;;;;-0.30;99.90;;;;;;5091368;28;19927;-49
2021/12/20 07:05:26;;;;;;;;;;;-0.30;99.90;;;;;;5091031;28;19989;-49
2021/12/20 07:07:53;;;;;;;;;;;-0.40;99.90;;;;;;5091829;28;19981;-49
2021/12/20 07:10:22;;;;;;;;;;;-0.40;99.90;;;;;;5091177;28;20000;-48
2021/12/20 07:12:49;;;;;;;;;;;-0.40;99.90;;;;;;5091560;28;20290;-48
2021/12/20 07:15:16;;;;;;;;;;;-0.50;99.90;;;;;;5091218;28;20296;-49
2021/12/20 07:17:43;;;;;;;;;;;-0.60;99.90;;;;;;5091605;28;20313;-48
2021/12/20 07:20:11;;;;;;;;;;;-0.70;99.90;;;;;;5091312;28;19977;-49
2021/12/20 07:22:38;;;;;;;;;;;-0.70;99.90;;;;;;5091056;28;19928;-49
2021/12/20 07:25:05;;;;;;;;;;;-0.60;99.90;;;;;;5091565;28;20465;-48
2021/12/20 07:27:33;;;;;;;;;;;-0.60;99.90;;;;;;5091513;28;19978;-49
2021/12/20 07:30:00;;;;;;;;;;;-0.50;99.90;;;;;;5092399;28;20033;-49
2021/12/20 07:32:27;;;;;;;;;;;-0.50;99.90;;;;;;5096583;28;19931;-49
2021/12/20 07:34:54;;;;;;;;;;;-0.50;99.90;;;;;;5090960;28;19932;-49
2021/12/20 07:37:21;;;;;;;;;;;-0.40;99.90;;;;;;5100675;28;19935;-49
2021/12/20 07:39:48;;;;;;;;;;;-0.40;99.90;;;;;;5108115;28;20002;-49
2021/12/20 07:42:15;;;;;;;;;;;-0.40;99.90;;;;;;5109009;28;20334;-49
2021/12/20 07:44:44;;;;;;;;;;;-0.50;99.90;;;;;;5111098;28;19924;-49
2021/12/20 07:47:10;;;;;;;;;;;-0.50;99.90;;;;;;5110965;28;19924;-49
2021/12/20 07:49:37;;;;;;;;;;;-0.50;99.90;;;;;;5098979;28;19924;-49
2021/12/20 07:52:04;;;;;;;;;;;-0.40;99.90;;;;;;5110594;28;19923;-49
2021/12/20 07:54:31;;;;;;;;;;;-0.40;99.90;;;;;;5111038;28;19923;-49
2021/12/20 07:56:58;;;;;;;;;;;-0.30;99.90;;;;;;5110336;28;20357;-49
2021/12/20 07:59:25;;;;;;;;;;;-0.40;99.90;;;;;;5087004;28;20419;-49
2021/12/20 08:01:53;;;;;;;;;;;-0.40;99.90;;;;;;5090232;28;19947;-49
2021/12/20 08:04:21;;;;;;;;;;;-0.30;99.90;;;;;;5105577;28;19993;-48
2021/12/20 08:06:48;;;;;;;;;;;-0.30;99.90;;;;;;5110702;28;20381;-49
2021/12/20 08:09:15;;;;;;;;;;;-0.20;99.90;;;;;;5110646;28;19969;-49
2021/12/20 08:11:42;;;;;;;;;;;-0.10;99.90;;;;;;5110454;28;19931;-49
2021/12/20 08:14:09;;;;;;;;;;;0.10;99.90;;;;;;5110591;28;20003;-49
2021/12/20 08:16:35;;;;;;;;;;;0.20;99.90;;;;;;5093892;28;19981;-49
2021/12/20 08:19:04;;;;;;;;;;;0.30;99.90;;;;;;5090052;28;19924;-48
2021/12/20 08:21:31;;;;;;;;;;;0.30;99.90;;;;;;5089688;28;19936;-49
2021/12/20 08:23:58;;;;;;;;;;;0.30;99.90;;;;;;5090163;28;19924;-49
2021/12/20 08:26:26;;;;;;;;;;;0.50;99.90;;;;;;5089832;28;19928;-49
2021/12/20 08:28:53;;;;;;;;;;;0.50;99.90;;;;;;5089455;28;20327;-50
2021/12/20 08:31:20;;;;;;;;;;;0.70;99.90;;;;;;5089923;28;19954;-49
2021/12/20 08:33:47;;;;;;;;;;;0.60;99.90;;;;;;5089897;28;19969;-49
2021/12/20 08:36:15;;;;;;;;;;;0.60;99.90;;;;;;5089340;28;19969;-50
2021/12/20 08:38:42;;;;;;;;;;;0.70;99.90;;;;;;5089618;28;20409;-50
2021/12/20 08:41:11;;;;;;;;;;;0.80;99.90;;;;;;5089370;28;19925;-48
2021/12/20 08:43:38;;;;;;;;;;;0.90;99.90;;;;;;5090907;28;20363;-49
2021/12/20 08:46:05;;;;;;;;;;;1.00;99.90;;;;;;5084512;28;19931;-48
2021/12/20 08:48:32;;;;;;;;;;;0.90;99.90;;;;;;5081477;28;19935;-49
2021/12/20 08:51:01;;;;;;;;;;;1.10;99.90;;;;;;5089316;28;19946;-48
2021/12/20 08:53:29;;;;;;;;;;;1.00;99.90;;;;;;5087639;28;19947;-49
2021/12/20 08:55:59;;;;;;;;;;;1.20;99.90;;;;;;5096214;28;19928;-49
2021/12/20 08:58:26;;;;;;;;;;;1.30;99.90;;;;;;5089457;28;20027;-49
2021/12/20 09:00:54;;;;;;;;;;;1.40;99.90;;;;;;5081389;28;20026;-48
2021/12/20 09:03:21;;;;;;;;;;;1.50;99.90;;;;;;5078609;28;19994;-49
2021/12/20 09:05:48;;;;;;;;;;;1.50;99.90;;;;;;5088837;28;19928;-49
2021/12/20 09:08:16;;;;;;;;;;;1.50;99.90;;;;;;5094594;28;19977;-48
2021/12/20 09:10:44;;;;;;;;;;;1.70;99.90;;;;;;5109795;28;20412;-49
2021/12/20 09:13:11;;;;;;;;;;;1.80;99.90;;;;;;5109248;28;19942;-48
2021/12/20 09:15:38;;;;;;;;;;;1.80;99.90;;;;;;5109487;28;19927;-49
2021/12/20 09:18:06;;;;;;;;;;;1.90;99.90;;;;;;5102757;28;19926;-50
2021/12/20 09:20:33;;;;;;;;;;;2.10;99.90;;;;;;5088954;28;20355;-49
2021/12/20 09:23:04;;;;;;;;;;;2.00;99.90;;;;;;5096715;28;19928;-49
2021/12/20 09:25:32;;;;;;;;;;;2.00;99.90;;;;;;5109281;28;19927;-49
2021/12/20 09:28:01;;;;;;;;;;;2.10;99.90;;;;;;5109082;28;19931;-50
2021/12/20 09:30:29;;;;;;;;;;;2.10;99.90;;;;;;5107807;28;19996;-49
2021/12/20 09:32:55;;;;;;;;;;;2.30;99.90;;;;;;5087730;28;19924;-49
2021/12/20 09:35:23;;;;;;;;;;;2.40;99.90;;;;;;5089000;28;19931;-48
2021/12/20 09:37:51;;;;;;;;;;;2.40;99.90;;;;;;5088844;28;20001;-49
2021/12/20 09:40:26;;;;;;;;;;;2.60;99.90;;;;;;5088622;28;19932;-49
2021/12/20 09:42:54;;;;;;;;;;;2.70;99.90;;;;;;5092497;28;19931;-48
2021/12/20 09:45:24;;;;;;;;;;;2.70;99.90;;;;;;5092484;28;20332;-49
2021/12/20 09:47:51;;;;;;;;;;;2.70;99.90;;;;;;5092957;28;19970;-49
2021/12/20 09:50:18;;;;;;;;;;;2.60;99.90;;;;;;5092705;28;20410;-50
2021/12/20 09:52:46;;;;;;;;;;;2.70;99.90;;;;;;5092508;28;19925;-49
2021/12/20 09:55:14;;;;;;;;;;;2.70;99.90;;;;;;5092447;28;20024;-49
2021/12/20 09:57:42;;;;;;;;;;;2.80;99.90;;;;;;5090022;28;19927;-49
2021/12/20 10:00:10;;;;;;;;;;;2.90;99.90;;;;;;5092571;28;19985;-48
2021/12/20 10:02:38;;;;;;;;;;;3.00;99.90;;;;;;5092550;28;19934;-47
2021/12/20 10:05:05;;;;;;;;;;;2.80;99.90;;;;;;5092781;28;19932;-48
2021/12/20 10:07:33;;;;;;;;;;;2.70;99.90;;;;;;5092430;28;19928;-49
2021/12/20 10:10:02;;;;;;;;;;;2.50;99.90;;;;;;5092489;28;19924;-49
2021/12/20 10:12:29;;;;;;;;;;;2.40;99.90;;;;;;5092098;28;19966;-48
2021/12/20 10:14:58;;;;;;;;;;;2.40;99.90;;;;;;5092561;28;19973;-50
2021/12/20 10:17:26;;;;;;;;;;;2.50;99.90;;;;;;5092333;28;19928;-50
2021/12/20 10:19:54;;;;;;;;;;;2.60;99.90;;;;;;5092492;28;19924;-49
2021/12/20 10:22:22;;;;;;;;;;;2.70;99.90;;;;;;5091880;28;19924;-48
2021/12/20 10:24:49;;;;;;;;;;;2.70;99.90;;;;;;5091852;28;19924;-49
2021/12/20 10:27:27;;;;;;;;;;;2.60;99.90;;;;;;5091973;28;20310;-49
2021/12/20 10:29:54;;;;;;;;;;;2.60;99.90;;;;;;5092503;28;19936;-49
2021/12/20 10:32:36;;;;;;;;;;;2.80;99.90;;;;;;5091689;28;20424;-48
2021/12/20 10:35:23;;;;;;;;;;;2.90;99.90;;;;;;5092370;28;19977;-49
2021/12/20 10:37:50;;;;;;;;;;;3.20;99.90;;;;;;5092377;28;19968;-49
2021/12/20 10:40:17;;;;;;;;;;;3.30;99.90;;;;;;5091779;28;20311;-49
2021/12/20 10:42:44;;;;;;;;;;;3.20;99.90;;;;;;5108060;28;20343;-48
2021/12/20 10:45:12;;;;;;;;;;;3.20;99.90;;;;;;5112216;28;19980;-48
2021/12/20 10:47:39;;;;;;;;;;;3.20;99.90;;;;;;5095881;28;19924;-48
2021/12/20 10:50:24;;;;;;;;;;;3.20;99.90;;;;;;5092069;28;19934;-48
2021/12/20 10:52:53;;;;;;;;;;;3.10;99.90;;;;;;5091773;28;19924;-49
2021/12/20 10:55:36;;;;;;;;;;;3.00;99.90;;;;;;5091240;28;19977;-48
2021/12/20 10:58:16;;;;;;;;;;;3.20;99.90;;;;;;5091392;28;19931;-49
2021/12/20 11:00:44;;;;;;;;;;;3.60;99.90;;;;;;5092441;28;19924;-49
2021/12/20 11:03:27;;;;;;;;;;;3.60;99.90;;;;;;5091707;28;20018;-49
2021/12/20 11:11:23;;;;;;;;;;;3.40;99.90;;;;;;5091014;28;20364;-49
2021/12/20 11:13:50;;;;;;;;;;;3.20;99.90;;;;;;5094936;28;19932;-48
2021/12/20 11:16:26;;;;;;;;;;;3.20;99.90;;;;;;5091403;28;20295;-50
2021/12/20 11:19:07;;;;;;;;;;;2.90;99.90;;;;;;5091278;28;19931;-49
2021/12/20 11:21:34;;;;;;;;;;;2.90;99.90;;;;;;5103702;28;19943;-48
2021/12/20 11:24:02;;;;;;;;;;;2.80;99.90;;;;;;5091313;28;19944;-50
2021/12/20 11:26:29;;;;;;;;;;;3.10;99.90;;;;;;5106951;28;20399;-49
2021/12/20 11:28:56;;;;;;;;;;;3.30;99.90;;;;;;5101762;28;19924;-50
2021/12/20 11:31:23;;;;;;;;;;;3.50;99.90;;;;;;5090902;28;19924;-49
2021/12/20 11:33:50;;;;;;;;;;;3.40;99.90;;;;;;5107824;28;19992;-50
2021/12/20 11:36:18;;;;;;;;;;;3.50;99.90;;;;;;5109207;28;20027;-49
2021/12/20 11:38:44;;;;;;;;;;;3.70;99.90;;;;;;5108705;28;20003;-50
2021/12/20 11:41:13;;;;;;;;;;;3.70;99.90;;;;;;5101993;28;20064;-49
2021/12/20 11:43:40;;;;;;;;;;;3.80;99.90;;;;;;5091735;28;19924;-49
2021/12/20 11:46:07;;;;;;;;;;;3.80;99.90;;;;;;5087653;28;19924;-49
2021/12/20 11:48:34;;;;;;;;;;;4.00;99.90;;;;;;5107318;28;19936;-50
2021/12/20 11:51:03;;;;;;;;;;;4.20;99.90;;;;;;5110818;28;19977;-49
2021/12/20 11:53:35;;;;;;;;;;;4.20;99.90;;;;;;5108940;28;20020;-49
2021/12/20 11:56:02;;;;;;;;;;;4.20;99.90;;;;;;5109128;28;20381;-50
2021/12/20 11:58:31;;;;;;;;;;;4.00;99.90;;;;;;5088722;28;19932;-50
2021/12/20 12:00:58;;;;;;;;;;;3.90;99.90;;;;;;5090066;28;19924;-50
2021/12/20 12:03:26;;;;;;;;;;;3.90;99.90;;;;;;5089938;28;19940;-50
2021/12/20 12:05:54;;;;;;;;;;;3.80;99.90;;;;;;5089284;28;20397;-48
2021/12/20 12:08:21;;;;;;;;;;;3.80;99.90;;;;;;5108029;28;19924;-50
2021/12/20 12:10:48;;;;;;;;;;;3.80;99.90;;;;;;5102080;28;20251;-50
2021/12/20 12:13:17;;;;;;;;;;;3.90;99.90;;;;;;5089692;28;19969;-49
2021/12/20 12:15:53;;;;;;;;;;;3.80;99.90;;;;;;5071590;28;19925;-50
2021/12/20 12:18:19;;;;;;;;;;;3.80;99.90;;;;;;5087142;28;19971;-48
2021/12/20 12:20:49;;;;;;;;;;;3.60;99.90;;;;;;5097997;28;19924;-49
2021/12/20 12:23:17;;;;;;;;;;;3.60;99.90;;;;;;5110280;28;20027;-49
2021/12/20 12:25:45;;;;;;;;;;;3.70;99.90;;;;;;5093727;28;20373;-50
2021/12/20 12:28:12;;;;;;;;;;;3.90;99.90;;;;;;5089855;28;19924;-49
2021/12/20 12:30:41;;;;;;;;;;;3.80;99.90;;;;;;5089749;28;20647;-50
2021/12/20 12:33:22;;;;;;;;;;;3.80;99.90;;;;;;5089520;28;19990;-48
2021/12/20 12:36:07;;;;;;;;;;;3.60;99.90;;;;;;5088584;28;19931;-48
2021/12/20 12:38:36;;;;;;;;;;;3.50;99.90;;;;;;5087360;28;19936;-48
2021/12/20 12:41:12;;;;;;;;;;;3.40;99.90;;;;;;5090275;28;19985;-49
2021/12/20 12:43:49;;;;;;;;;;;3.30;99.90;;;;;;5078900;28;19935;-48
2021/12/20 12:46:16;;;;;;;;;;;3.30;99.90;;;;;;5089342;28;19978;-48
2021/12/20 12:48:46;;;;;;;;;;;3.00;99.90;;;;;;5089496;28;19985;-49
2021/12/20 12:51:39;;;;;;;;;;;2.90;99.90;;;;;;5089022;28;20032;-49
2021/12/20 12:54:06;;;;;;;;;;;2.90;99.90;;;;;;5040950;28;19932;-49
2021/12/20 12:56:35;;;;;;;;;;;3.10;99.90;;;;;;5089005;28;19928;-50
2021/12/20 12:59:22;;;;;;;;;;;3.10;99.90;;;;;;5089088;28;20492;-49
2021/12/20 13:01:50;;;;;;;;;;;3.20;99.90;;;;;;5089129;28;20013;-48
2021/12/20 13:04:19;;;;;;;;;;;3.10;99.90;;;;;;5088961;28;20395;-49
2021/12/20 13:06:45;;;;;;;;;;;3.00;99.90;;;;;;5088980;28;20005;-49
2021/12/20 13:09:12;;;;;;;;;;;3.00;99.90;;;;;;5095016;28;19982;-48
2021/12/20 13:11:39;;;;;;;;;;;2.90;99.90;;;;;;5089650;28;19928;-48
2021/12/20 13:14:09;;;;;;;;;;;2.80;99.90;;;;;;5096629;28;19924;-49
2021/12/20 13:16:38;;;;;;;;;;;2.70;99.90;;;;;;5088921;28;19959;-50
2021/12/20 13:19:06;;;;;;;;;;;2.80;99.90;;;;;;5089359;28;19924;-49
2021/12/20 13:21:49;;;;;;;;;;;2.80;99.90;;;;;;5088636;28;19924;-48
2021/12/20 13:24:16;;;;;;;;;;;2.90;99.90;;;;;;5101324;28;20019;-49
2021/12/20 13:26:43;;;;;;;;;;;2.90;99.90;;;;;;5089099;28;20397;-48
2021/12/20 13:29:15;;;;;;;;;;;3.00;99.90;;;;;;5089279;28;19993;-50
2021/12/20 13:31:43;;;;;;;;;;;3.10;99.90;;;;;;5088770;28;19931;-49
2021/12/20 13:34:14;;;;;;;;;;;3.20;99.90;;;;;;5088522;28;19924;-50
2021/12/20 13:36:50;;;;;;;;;;;3.00;99.90;;;;;;5088765;28;19924;-49
2021/12/20 13:39:18;;;;;;;;;;;3.10;99.90;;;;;;5088980;28;19928;-48
2021/12/20 13:41:44;;;;;;;;;;;3.10;99.90;;;;;;5088726;28;19932;-50
2021/12/20 13:44:13;;;;;;;;;;;3.00;99.90;;;;;;5088945;28;19924;-49
2021/12/20 13:46:43;;;;;;;;;;;3.00;99.90;;;;;;5085072;28;20491;-49
2021/12/20 13:49:10;;;;;;;;;;;3.00;99.90;;;;;;5078355;28;20362;-49
2021/12/20 13:51:39;;;;;;;;;;;3.00;99.90;;;;;;5088444;28;20010;-48
2021/12/20 13:54:21;;;;;;;;;;;3.00;99.90;;;;;;5087562;28;19924;-48
2021/12/20 13:56:52;;;;;;;;;;;3.10;99.90;;;;;;5088748;28;19924;-49
2021/12/20 13:59:22;;;;;;;;;;;3.10;99.90;;;;;;5088941;28;19924;-50
2021/12/20 14:01:49;;;;;;;;;;;3.20;99.90;;;;;;5089717;28;19924;-50
2021/12/20 14:04:25;;;;;;;;;;;3.00;99.90;;;;;;5090731;28;19928;-49
2021/12/20 14:06:52;;;;;;;;;;;2.80;99.90;;;;;;5109447;28;19984;-49
2021/12/20 14:09:24;;;;;;;;;;;2.90;99.90;;;;;;5109341;28;19928;-49
2021/12/20 14:12:11;;;;;;;;;;;2.60;99.90;;;;;;5109037;28;20347;-49
2021/12/20 14:14:38;;;;;;;;;;;2.50;99.90;;;;;;5106214;28;19932;-49
2021/12/20 14:17:05;;;;;;;;;;;2.50;99.90;;;;;;5088389;28;19936;-48
2021/12/20 14:20:03;;;;;;;;;;;2.40;99.90;;;;;;5088908;28;19924;-50
2021/12/20 14:22:31;;;;;;;;;;;2.30;99.90;;;;;;5006266;28;19982;-49
2021/12/20 14:25:03;;;;;;;;;;;2.20;99.90;;;;;;5071395;28;20342;-49
2021/12/20 14:27:30;;;;;;;;;;;2.10;99.90;;;;;;5090542;28;19935;-49
2021/12/20 14:29:57;;;;;;;;;;;2.00;99.90;;;;;;5107163;28;19988;-49
2021/12/20 14:32:36;;;;;;;;;;;2.00;99.90;;;;;;5097460;28;19924;-49
2021/12/20 14:35:18;;;;;;;;;;;2.10;99.90;;;;;;5089552;28;19977;-49
2021/12/20 14:37:45;;;;;;;;;;;2.00;99.90;;;;;;5091517;28;20362;-49
2021/12/20 14:40:13;;;;;;;;;;;1.90;99.90;;;;;;5092637;28;20316;-50
2021/12/20 14:42:40;;;;;;;;;;;1.90;99.90;;;;;;5091983;28;19993;-49
2021/12/20 14:45:20;;;;;;;;;;;1.80;99.90;;;;;;5092486;28;20001;-49
2021/12/20 14:47:46;;;;;;;;;;;1.70;99.90;;;;;;5092149;28;19928;-49
2021/12/20 14:50:24;;;;;;;;;;;1.80;99.90;;;;;;5092038;28;20447;-49